sensor_id;sensor_type;location;lat;lon;timestamp;temperature;humidity
51902;DHT22;37929;53.218;6.548;2022-09-27T00:00:37;10.80;99.90
51902;DHT22;37929;53.218;6.548;2022-09-27T00:03:02;10.50;99.90
51902;DHT22;37929;53.218;6.548;2022-09-27T00:05:30;10.50;99.90
51902;DHT22;37929;53.218;6.548;2022-09-27T00:07:56;10.40;99.90
51902;DHT22;37929;53.218;6.548;2022-09-27T00:10:21;10.40;99.90
51902;DHT22;37929;53.218;6.548;2022-09-27T00:12:47;10.40;99.90
51902;DHT22;37929;53.218;6.548;2022-09-27T00:15:13;10.50;99.90
51902;DHT22;37929;53.218;6.548;2022-09-27T00:17:39;10.40;99.90
51902;DHT22;37929;53.218;6.548;2022-09-27T00:20:06;10.50;99.90
51902;DHT22;37929;53.218;6.548;2022-09-27T00:22:33;10.40;99.90
51902;DHT22;37929;53.218;6.548;2022-09-27T00:24:59;10.40;99.90
51902;DHT22;37929;53.218;6.548;2022-09-27T00:27:25;10.40;99.90
51902;DHT22;37929;53.218;6.548;2022-09-27T00:29:51;10.30;99.90
51902;DHT22;37929;53.218;6.548;2022-09-27T00:32:17;10.30;99.90
51902;DHT22;37929;53.218;6.548;2022-09-27T00:34:43;10.30;99.90
51902;DHT22;37929;53.218;6.548;2022-09-27T00:37:10;10.30;99.90
51902;DHT22;37929;53.218;6.548;2022-09-27T00:39:36;10.30;99.90
51902;DHT22;37929;53.218;6.548;2022-09-27T00:42:04;10.30;99.90
51902;DHT22;37929;53.218;6.548;2022-09-27T00:50:06;10.30;99.90
51902;DHT22;37929;53.218;6.548;2022-09-27T00:55:36;10.30;99.90
51902;DHT22;37929;53.218;6.548;2022-09-27T00:58:03;10.30;99.90
51902;DHT22;37929;53.218;6.548;2022-09-27T01:00:29;10.30;99.90
51902;DHT22;37929;53.218;6.548;2022-09-27T01:02:56;10.20;99.90
51902;DHT22;37929;53.218;6.548;2022-09-27T01:05:25;10.20;99.90
51902;DHT22;37929;53.218;6.548;2022-09-27T01:07:51;10.20;99.90
51902;DHT22;37929;53.218;6.548;2022-09-27T01:10:22;10.10;99.90
51902;DHT22;37929;53.218;6.548;2022-09-27T01:18:04;10.10;99.90
51902;DHT22;37929;53.218;6.548;2022-09-27T01:26:10;10.00;99.90
51902;DHT22;37929;53.218;6.548;2022-09-27T01:28:46;10.00;99.90
51902;DHT22;37929;53.218;6.548;2022-09-27T01:36:42;10.00;99.90
51902;DHT22;37929;53.218;6.548;2022-09-27T01:39:31;10.00;99.90
51902;DHT22;37929;53.218;6.548;2022-09-27T01:42:09;10.00;99.90
51902;DHT22;37929;53.218;6.548;2022-09-27T01:45:11;10.00;99.90
51902;DHT22;37929;53.218;6.548;2022-09-27T01:47:43;10.00;99.90
51902;DHT22;37929;53.218;6.548;2022-09-27T01:50:39;10.00;99.90
51902;DHT22;37929;53.218;6.548;2022-09-27T01:53:18;10.00;99.90
51902;DHT22;37929;53.218;6.548;2022-09-27T01:55:47;9.90;99.90
51902;DHT22;37929;53.218;6.548;2022-09-27T01:58:40;10.00;99.90
51902;DHT22;37929;53.218;6.548;2022-09-27T02:01:08;9.90;99.90
51902;DHT22;37929;53.218;6.548;2022-09-27T02:03:41;9.90;99.90
51902;DHT22;37929;53.218;6.548;2022-09-27T02:09:01;9.90;99.90
51902;DHT22;37929;53.218;6.548;2022-09-27T02:11:28;9.80;99.90
51902;DHT22;37929;53.218;6.548;2022-09-27T02:14:07;9.80;99.90
51902;DHT22;37929;53.218;6.548;2022-09-27T02:16:51;9.80;99.90
51902;DHT22;37929;53.218;6.548;2022-09-27T02:22:41;9.80;99.90
51902;DHT22;37929;53.218;6.548;2022-09-27T02:25:11;9.70;99.90
51902;DHT22;37929;53.218;6.548;2022-09-27T02:30:19;9.70;99.90
51902;DHT22;37929;53.218;6.548;2022-09-27T02:32:45;9.60;99.90
51902;DHT22;37929;53.218;6.548;2022-09-27T02:35:26;9.60;99.90
51902;DHT22;37929;53.218;6.548;2022-09-27T02:37:54;9.60;99.90
51902;DHT22;37929;53.218;6.548;2022-09-27T02:40:21;9.60;99.90
51902;DHT22;37929;53.218;6.548;2022-09-27T02:42:47;9.50;99.90
51902;DHT22;37929;53.218;6.548;2022-09-27T02:45:15;9.50;99.90
51902;DHT22;37929;53.218;6.548;2022-09-27T02:47:58;9.50;99.90
51902;DHT22;37929;53.218;6.548;2022-09-27T02:53:51;9.50;99.90
51902;DHT22;37929;53.218;6.548;2022-09-27T02:59:23;9.50;99.90
51902;DHT22;37929;53.218;6.548;2022-09-27T03:04:35;9.50;99.90
51902;DHT22;37929;53.218;6.548;2022-09-27T03:07:03;9.50;99.90
51902;DHT22;37929;53.218;6.548;2022-09-27T03:09:43;9.50;99.90
51902;DHT22;37929;53.218;6.548;2022-09-27T03:12:10;9.50;99.90
51902;DHT22;37929;53.218;6.548;2022-09-27T03:14:36;9.50;99.90
51902;DHT22;37929;53.218;6.548;2022-09-27T03:17:02;9.50;99.90
51902;DHT22;37929;53.218;6.548;2022-09-27T03:19:27;9.50;99.90
51902;DHT22;37929;53.218;6.548;2022-09-27T03:21:53;9.40;99.90
51902;DHT22;37929;53.218;6.548;2022-09-27T03:24:19;9.90;99.90
51902;DHT22;37929;53.218;6.548;2022-09-27T03:26:44;9.40;99.90
51902;DHT22;37929;53.218;6.548;2022-09-27T03:29:10;9.40;99.90
51902;DHT22;37929;53.218;6.548;2022-09-27T03:31:36;9.40;99.90
51902;DHT22;37929;53.218;6.548;2022-09-27T03:34:01;9.40;99.90
51902;DHT22;37929;53.218;6.548;2022-09-27T03:36:27;9.30;99.90
51902;DHT22;37929;53.218;6.548;2022-09-27T03:38:53;9.40;99.90
51902;DHT22;37929;53.218;6.548;2022-09-27T03:41:19;9.30;99.90
51902;DHT22;37929;53.218;6.548;2022-09-27T03:43:45;9.30;99.90
51902;DHT22;37929;53.218;6.548;2022-09-27T03:46:10;9.30;99.90
51902;DHT22;37929;53.218;6.548;2022-09-27T03:48:36;9.30;99.90
51902;DHT22;37929;53.218;6.548;2022-09-27T03:51:02;9.30;99.90
51902;DHT22;37929;53.218;6.548;2022-09-27T03:53:29;9.30;99.90
51902;DHT22;37929;53.218;6.548;2022-09-27T03:55:55;9.30;99.90
51902;DHT22;37929;53.218;6.548;2022-09-27T03:58:20;9.30;99.90
51902;DHT22;37929;53.218;6.548;2022-09-27T04:00:46;9.20;99.90
51902;DHT22;37929;53.218;6.548;2022-09-27T04:03:12;9.30;99.90
51902;DHT22;37929;53.218;6.548;2022-09-27T04:05:39;9.30;99.90
51902;DHT22;37929;53.218;6.548;2022-09-27T04:08:04;9.30;99.90
51902;DHT22;37929;53.218;6.548;2022-09-27T04:10:35;9.30;99.90
51902;DHT22;37929;53.218;6.548;2022-09-27T04:13:01;9.40;99.90
51902;DHT22;37929;53.218;6.548;2022-09-27T04:15:26;9.30;99.90
51902;DHT22;37929;53.218;6.548;2022-09-27T04:17:52;9.30;99.90
51902;DHT22;37929;53.218;6.548;2022-09-27T04:20:18;9.30;99.90
51902;DHT22;37929;53.218;6.548;2022-09-27T04:22:44;9.30;99.90
51902;DHT22;37929;53.218;6.548;2022-09-27T04:25:10;9.30;99.90
51902;DHT22;37929;53.218;6.548;2022-09-27T04:27:37;9.40;99.90
51902;DHT22;37929;53.218;6.548;2022-09-27T04:30:03;9.40;99.90
51902;DHT22;37929;53.218;6.548;2022-09-27T04:32:30;9.40;99.90
51902;DHT22;37929;53.218;6.548;2022-09-27T04:34:55;9.40;99.90
51902;DHT22;37929;53.218;6.548;2022-09-27T04:37:40;9.40;99.90
51902;DHT22;37929;53.218;6.548;2022-09-27T04:40:06;9.30;99.90
51902;DHT22;37929;53.218;6.548;2022-09-27T04:42:32;9.30;99.90
51902;DHT22;37929;53.218;6.548;2022-09-27T04:44:58;9.30;99.90
51902;DHT22;37929;53.218;6.548;2022-09-27T04:47:24;9.30;99.90
51902;DHT22;37929;53.218;6.548;2022-09-27T04:49:50;9.40;99.90
51902;DHT22;37929;53.218;6.548;2022-09-27T04:52:16;9.40;99.90
51902;DHT22;37929;53.218;6.548;2022-09-27T04:54:42;9.40;99.90
51902;DHT22;37929;53.218;6.548;2022-09-27T04:57:07;9.40;99.90
51902;DHT22;37929;53.218;6.548;2022-09-27T04:59:33;9.40;99.90
51902;DHT22;37929;53.218;6.548;2022-09-27T05:01:59;9.40;99.90
51902;DHT22;37929;53.218;6.548;2022-09-27T05:04:25;9.40;99.90
51902;DHT22;37929;53.218;6.548;2022-09-27T05:06:52;9.40;99.90
51902;DHT22;37929;53.218;6.548;2022-09-27T05:09:18;9.30;99.90
51902;DHT22;37929;53.218;6.548;2022-09-27T05:11:44;9.40;99.90
51902;DHT22;37929;53.218;6.548;2022-09-27T05:14:10;9.30;99.90
51902;DHT22;37929;53.218;6.548;2022-09-27T05:16:38;9.30;99.90
51902;DHT22;37929;53.218;6.548;2022-09-27T05:19:04;9.40;99.90
51902;DHT22;37929;53.218;6.548;2022-09-27T05:21:30;9.30;99.90
51902;DHT22;37929;53.218;6.548;2022-09-27T05:23:57;9.30;99.90
51902;DHT22;37929;53.218;6.548;2022-09-27T05:26:23;9.30;99.90
51902;DHT22;37929;53.218;6.548;2022-09-27T05:28:48;9.30;99.90
51902;DHT22;37929;53.218;6.548;2022-09-27T05:31:14;9.30;99.90
51902;DHT22;37929;53.218;6.548;2022-09-27T05:33:41;9.30;99.90
51902;DHT22;37929;53.218;6.548;2022-09-27T05:36:07;9.30;99.90
51902;DHT22;37929;53.218;6.548;2022-09-27T05:38:33;9.30;99.90
51902;DHT22;37929;53.218;6.548;2022-09-27T05:41:01;9.30;99.90
51902;DHT22;37929;53.218;6.548;2022-09-27T05:43:27;9.40;99.90
51902;DHT22;37929;53.218;6.548;2022-09-27T05:45:54;9.40;99.90
51902;DHT22;37929;53.218;6.548;2022-09-27T05:48:19;9.40;99.90
51902;DHT22;37929;53.218;6.548;2022-09-27T05:50:49;9.40;99.90
51902;DHT22;37929;53.218;6.548;2022-09-27T05:53:15;9.40;99.90
51902;DHT22;37929;53.218;6.548;2022-09-27T05:55:41;9.50;99.90
51902;DHT22;37929;53.218;6.548;2022-09-27T05:58:09;9.40;99.90
51902;DHT22;37929;53.218;6.548;2022-09-27T06:00:37;9.50;99.90
51902;DHT22;37929;53.218;6.548;2022-09-27T06:03:04;9.40;99.90
51902;DHT22;37929;53.218;6.548;2022-09-27T06:05:34;9.40;99.90
51902;DHT22;37929;53.218;6.548;2022-09-27T06:08:11;9.40;99.90
51902;DHT22;37929;53.218;6.548;2022-09-27T06:10:39;9.40;99.90
51902;DHT22;37929;53.218;6.548;2022-09-27T06:13:10;9.40;99.90
51902;DHT22;37929;53.218;6.548;2022-09-27T06:15:38;9.40;99.90
51902;DHT22;37929;53.218;6.548;2022-09-27T06:18:06;9.40;99.90
51902;DHT22;37929;53.218;6.548;2022-09-27T06:20:34;9.40;99.90
51902;DHT22;37929;53.218;6.548;2022-09-27T06:23:11;9.50;99.90
51902;DHT22;37929;53.218;6.548;2022-09-27T06:25:38;9.50;99.90
51902;DHT22;37929;53.218;6.548;2022-09-27T06:28:04;9.50;99.90
51902;DHT22;37929;53.218;6.548;2022-09-27T06:30:31;9.50;99.90
51902;DHT22;37929;53.218;6.548;2022-09-27T06:32:58;9.50;99.90
51902;DHT22;37929;53.218;6.548;2022-09-27T06:35:25;9.40;99.90
51902;DHT22;37929;53.218;6.548;2022-09-27T06:37:52;9.50;99.90
51902;DHT22;37929;53.218;6.548;2022-09-27T06:40:18;9.40;99.90
51902;DHT22;37929;53.218;6.548;2022-09-27T06:42:44;9.40;99.90
51902;DHT22;37929;53.218;6.548;2022-09-27T06:45:10;9.40;99.90
51902;DHT22;37929;53.218;6.548;2022-09-27T06:47:37;9.50;99.90
51902;DHT22;37929;53.218;6.548;2022-09-27T06:50:04;9.50;99.90
51902;DHT22;37929;53.218;6.548;2022-09-27T06:52:34;9.50;99.90
51902;DHT22;37929;53.218;6.548;2022-09-27T06:55:03;9.60;99.90
51902;DHT22;37929;53.218;6.548;2022-09-27T06:57:29;9.60;99.90
51902;DHT22;37929;53.218;6.548;2022-09-27T07:00:14;9.70;99.90
51902;DHT22;37929;53.218;6.548;2022-09-27T07:02:49;9.50;99.90
51902;DHT22;37929;53.218;6.548;2022-09-27T07:05:18;9.50;99.90
51902;DHT22;37929;53.218;6.548;2022-09-27T07:07:44;9.50;99.90
51902;DHT22;37929;53.218;6.548;2022-09-27T07:10:12;9.50;99.90
51902;DHT22;37929;53.218;6.548;2022-09-27T07:12:38;9.50;99.90
51902;DHT22;37929;53.218;6.548;2022-09-27T07:15:04;9.50;99.90
51902;DHT22;37929;53.218;6.548;2022-09-27T07:17:30;9.50;99.90
51902;DHT22;37929;53.218;6.548;2022-09-27T07:19:56;9.50;99.90
51902;DHT22;37929;53.218;6.548;2022-09-27T07:22:22;9.50;99.90
51902;DHT22;37929;53.218;6.548;2022-09-27T07:24:48;9.80;99.90
51902;DHT22;37929;53.218;6.548;2022-09-27T07:27:14;9.50;99.90
51902;DHT22;37929;53.218;6.548;2022-09-27T07:29:40;9.50;99.90
51902;DHT22;37929;53.218;6.548;2022-09-27T07:32:06;9.50;99.90
51902;DHT22;37929;53.218;6.548;2022-09-27T07:34:35;9.60;99.90
51902;DHT22;37929;53.218;6.548;2022-09-27T07:37:01;9.60;99.90
51902;DHT22;37929;53.218;6.548;2022-09-27T07:39:30;9.70;99.90
51902;DHT22;37929;53.218;6.548;2022-09-27T07:41:56;9.80;99.90
51902;DHT22;37929;53.218;6.548;2022-09-27T07:44:22;9.80;99.90
51902;DHT22;37929;53.218;6.548;2022-09-27T07:46:48;9.90;99.90
51902;DHT22;37929;53.218;6.548;2022-09-27T07:49:14;9.90;99.90
51902;DHT22;37929;53.218;6.548;2022-09-27T07:51:39;9.90;99.90
51902;DHT22;37929;53.218;6.548;2022-09-27T07:54:05;10.00;99.90
51902;DHT22;37929;53.218;6.548;2022-09-27T07:56:31;9.90;99.90
51902;DHT22;37929;53.218;6.548;2022-09-27T07:58:57;9.90;99.90
51902;DHT22;37929;53.218;6.548;2022-09-27T08:01:24;9.90;99.90
51902;DHT22;37929;53.218;6.548;2022-09-27T08:03:50;9.90;99.90
51902;DHT22;37929;53.218;6.548;2022-09-27T08:06:16;9.80;99.90
51902;DHT22;37929;53.218;6.548;2022-09-27T08:08:43;9.80;99.90
51902;DHT22;37929;53.218;6.548;2022-09-27T08:11:14;9.70;99.90
51902;DHT22;37929;53.218;6.548;2022-09-27T08:13:44;9.80;99.90
51902;DHT22;37929;53.218;6.548;2022-09-27T08:16:10;9.70;99.90
51902;DHT22;37929;53.218;6.548;2022-09-27T08:18:36;9.70;99.90
51902;DHT22;37929;53.218;6.548;2022-09-27T08:21:03;9.70;99.90
51902;DHT22;37929;53.218;6.548;2022-09-27T08:23:29;9.70;99.90
51902;DHT22;37929;53.218;6.548;2022-09-27T08:25:56;9.70;99.90
51902;DHT22;37929;53.218;6.548;2022-09-27T08:28:25;9.80;99.90
51902;DHT22;37929;53.218;6.548;2022-09-27T08:30:51;9.80;99.90
51902;DHT22;37929;53.218;6.548;2022-09-27T08:33:17;9.80;99.90
51902;DHT22;37929;53.218;6.548;2022-09-27T08:35:43;9.90;99.90
51902;DHT22;37929;53.218;6.548;2022-09-27T08:38:09;9.90;99.90
51902;DHT22;37929;53.218;6.548;2022-09-27T08:40:58;10.00;99.90
51902;DHT22;37929;53.218;6.548;2022-09-27T08:43:32;10.00;99.90
51902;DHT22;37929;53.218;6.548;2022-09-27T08:48:52;10.10;99.90
51902;DHT22;37929;53.218;6.548;2022-09-27T08:51:38;10.20;99.90
51902;DHT22;37929;53.218;6.548;2022-09-27T08:54:29;10.20;99.90
51902;DHT22;37929;53.218;6.548;2022-09-27T08:57:01;10.20;99.90
51902;DHT22;37929;53.218;6.548;2022-09-27T08:59:36;10.20;99.90
51902;DHT22;37929;53.218;6.548;2022-09-27T09:02:05;10.20;99.90
51902;DHT22;37929;53.218;6.548;2022-09-27T09:04:39;10.20;99.90
51902;DHT22;37929;53.218;6.548;2022-09-27T09:07:31;10.20;99.90
51902;DHT22;37929;53.218;6.548;2022-09-27T09:12:56;10.30;99.90
51902;DHT22;37929;53.218;6.548;2022-09-27T09:15:37;10.30;99.90
51902;DHT22;37929;53.218;6.548;2022-09-27T09:24:44;10.40;99.90
51902;DHT22;37929;53.218;6.548;2022-09-27T09:34:59;10.30;99.90
51902;DHT22;37929;53.218;6.548;2022-09-27T09:37:36;10.30;99.90
51902;DHT22;37929;53.218;6.548;2022-09-27T09:43:01;10.40;99.90
51902;DHT22;37929;53.218;6.548;2022-09-27T09:45:33;10.40;99.90
51902;DHT22;37929;53.218;6.548;2022-09-27T09:48:04;10.40;99.90
51902;DHT22;37929;53.218;6.548;2022-09-27T09:50:35;10.40;99.90
51902;DHT22;37929;53.218;6.548;2022-09-27T09:53:14;10.30;99.90
51902;DHT22;37929;53.218;6.548;2022-09-27T09:55:45;10.30;99.90
51902;DHT22;37929;53.218;6.548;2022-09-27T09:58:43;10.30;99.90
51902;DHT22;37929;53.218;6.548;2022-09-27T10:03:47;10.20;99.90
51902;DHT22;37929;53.218;6.548;2022-09-27T10:06:15;10.20;99.90
51902;DHT22;37929;53.218;6.548;2022-09-27T10:08:41;10.20;99.90
51902;DHT22;37929;53.218;6.548;2022-09-27T10:11:18;10.20;99.90
51902;DHT22;37929;53.218;6.548;2022-09-27T10:13:44;10.20;99.90
51902;DHT22;37929;53.218;6.548;2022-09-27T10:16:13;10.20;99.90
51902;DHT22;37929;53.218;6.548;2022-09-27T10:18:39;10.20;99.90
51902;DHT22;37929;53.218;6.548;2022-09-27T10:21:11;10.10;99.90
51902;DHT22;37929;53.218;6.548;2022-09-27T10:24:00;10.20;99.90
51902;DHT22;37929;53.218;6.548;2022-09-27T10:26:29;10.20;99.90
51902;DHT22;37929;53.218;6.548;2022-09-27T10:28:55;10.20;99.90
51902;DHT22;37929;53.218;6.548;2022-09-27T10:31:21;10.20;99.90
51902;DHT22;37929;53.218;6.548;2022-09-27T10:33:58;10.20;99.90
51902;DHT22;37929;53.218;6.548;2022-09-27T10:36:28;10.20;99.90
51902;DHT22;37929;53.218;6.548;2022-09-27T10:38:56;10.30;99.90
51902;DHT22;37929;53.218;6.548;2022-09-27T10:41:34;10.30;99.90
51902;DHT22;37929;53.218;6.548;2022-09-27T10:46:47;10.40;99.90
51902;DHT22;37929;53.218;6.548;2022-09-27T10:51:48;10.50;99.90
51902;DHT22;37929;53.218;6.548;2022-09-27T10:54:26;10.50;99.90
51902;DHT22;37929;53.218;6.548;2022-09-27T10:57:09;10.50;99.90
51902;DHT22;37929;53.218;6.548;2022-09-27T10:59:42;10.40;99.90
51902;DHT22;37929;53.218;6.548;2022-09-27T11:02:28;10.20;99.90
51902;DHT22;37929;53.218;6.548;2022-09-27T11:05:14;10.10;99.90
51902;DHT22;37929;53.218;6.548;2022-09-27T11:07:56;10.00;99.90
51902;DHT22;37929;53.218;6.548;2022-09-27T11:10:31;9.90;99.90
51902;DHT22;37929;53.218;6.548;2022-09-27T11:18:32;9.80;99.90
51902;DHT22;37929;53.218;6.548;2022-09-27T11:24:34;9.70;99.90
51902;DHT22;37929;53.218;6.548;2022-09-27T11:32:48;9.70;99.90
51902;DHT22;37929;53.218;6.548;2022-09-27T11:46:36;9.80;99.90
51902;DHT22;37929;53.218;6.548;2022-09-27T11:49:18;10.10;99.90
51902;DHT22;37929;53.218;6.548;2022-09-27T12:00:15;10.50;99.90
51902;DHT22;37929;53.218;6.548;2022-09-27T12:10:47;10.30;99.90
51902;DHT22;37929;53.218;6.548;2022-09-27T12:13:14;10.30;99.90
51902;DHT22;37929;53.218;6.548;2022-09-27T12:15:43;10.30;99.90
51902;DHT22;37929;53.218;6.548;2022-09-27T12:18:16;10.30;99.90
51902;DHT22;37929;53.218;6.548;2022-09-27T12:20:45;10.30;99.90
51902;DHT22;37929;53.218;6.548;2022-09-27T12:23:20;10.20;99.90
51902;DHT22;37929;53.218;6.548;2022-09-27T12:25:51;10.10;99.90
51902;DHT22;37929;53.218;6.548;2022-09-27T12:28:33;10.20;99.90
51902;DHT22;37929;53.218;6.548;2022-09-27T12:31:26;10.30;99.90
51902;DHT22;37929;53.218;6.548;2022-09-27T12:36:35;10.30;99.90
51902;DHT22;37929;53.218;6.548;2022-09-27T12:42:21;10.40;99.90
51902;DHT22;37929;53.218;6.548;2022-09-27T12:44:50;10.30;99.90
51902;DHT22;37929;53.218;6.548;2022-09-27T12:52:53;10.40;99.90
51902;DHT22;37929;53.218;6.548;2022-09-27T13:01:21;10.50;99.90
51902;DHT22;37929;53.218;6.548;2022-09-27T13:03:59;10.50;99.90
51902;DHT22;37929;53.218;6.548;2022-09-27T13:06:30;10.60;99.90
51902;DHT22;37929;53.218;6.548;2022-09-27T13:22:56;10.60;99.90
51902;DHT22;37929;53.218;6.548;2022-09-27T13:25:48;10.60;99.90
51902;DHT22;37929;53.218;6.548;2022-09-27T13:30:52;10.50;99.90
51902;DHT22;37929;53.218;6.548;2022-09-27T13:36:04;10.40;99.90
51902;DHT22;37929;53.218;6.548;2022-09-27T13:38:30;10.30;99.90
51902;DHT22;37929;53.218;6.548;2022-09-27T13:41:17;10.10;99.90
51902;DHT22;37929;53.218;6.548;2022-09-27T13:43:58;10.00;99.90
51902;DHT22;37929;53.218;6.548;2022-09-27T13:46:30;9.90;99.90
51902;DHT22;37929;53.218;6.548;2022-09-27T13:49:17;9.90;99.90
51902;DHT22;37929;53.218;6.548;2022-09-27T13:51:55;9.80;99.90
51902;DHT22;37929;53.218;6.548;2022-09-27T13:57:01;9.70;99.90
51902;DHT22;37929;53.218;6.548;2022-09-27T13:59:42;9.70;99.90
51902;DHT22;37929;53.218;6.548;2022-09-27T14:02:35;9.70;99.90
51902;DHT22;37929;53.218;6.548;2022-09-27T14:05:02;9.80;99.90
51902;DHT22;37929;53.218;6.548;2022-09-27T14:07:43;9.90;99.90
51902;DHT22;37929;53.218;6.548;2022-09-27T14:10:16;10.00;99.90
51902;DHT22;37929;53.218;6.548;2022-09-27T14:12:42;10.00;99.90
51902;DHT22;37929;53.218;6.548;2022-09-27T14:15:18;10.10;99.90
51902;DHT22;37929;53.218;6.548;2022-09-27T14:17:45;10.10;99.90
51902;DHT22;37929;53.218;6.548;2022-09-27T14:20:37;10.10;99.90
51902;DHT22;37929;53.218;6.548;2022-09-27T14:23:10;10.10;99.90
51902;DHT22;37929;53.218;6.548;2022-09-27T14:25:44;10.20;99.90
51902;DHT22;37929;53.218;6.548;2022-09-27T14:28:28;9.90;99.90
51902;DHT22;37929;53.218;6.548;2022-09-27T14:31:18;9.90;99.90
51902;DHT22;37929;53.218;6.548;2022-09-27T14:33:44;9.80;99.90
51902;DHT22;37929;53.218;6.548;2022-09-27T14:36:26;9.80;99.90
51902;DHT22;37929;53.218;6.548;2022-09-27T14:42:01;9.90;99.90
51902;DHT22;37929;53.218;6.548;2022-09-27T14:44:27;9.90;99.90
51902;DHT22;37929;53.218;6.548;2022-09-27T14:47:22;9.90;99.90
51902;DHT22;37929;53.218;6.548;2022-09-27T14:49:58;9.90;99.90
51902;DHT22;37929;53.218;6.548;2022-09-27T14:52:32;10.00;99.90
51902;DHT22;37929;53.218;6.548;2022-09-27T14:55:00;10.00;99.90
51902;DHT22;37929;53.218;6.548;2022-09-27T14:57:28;9.90;99.90
51902;DHT22;37929;53.218;6.548;2022-09-27T14:59:58;9.90;99.90
51902;DHT22;37929;53.218;6.548;2022-09-27T15:02:28;9.90;99.90
51902;DHT22;37929;53.218;6.548;2022-09-27T15:04:54;9.90;99.90
51902;DHT22;37929;53.218;6.548;2022-09-27T15:07:20;9.90;99.90
51902;DHT22;37929;53.218;6.548;2022-09-27T15:09:48;9.90;99.90
51902;DHT22;37929;53.218;6.548;2022-09-27T15:12:22;9.90;99.90
51902;DHT22;37929;53.218;6.548;2022-09-27T15:14:50;10.00;99.90
51902;DHT22;37929;53.218;6.548;2022-09-27T15:17:18;10.00;99.90
51902;DHT22;37929;53.218;6.548;2022-09-27T15:20:00;10.00;99.90
51902;DHT22;37929;53.218;6.548;2022-09-27T15:22:40;9.90;99.90
51902;DHT22;37929;53.218;6.548;2022-09-27T15:25:22;9.90;99.90
51902;DHT22;37929;53.218;6.548;2022-09-27T15:27:53;9.90;99.90
51902;DHT22;37929;53.218;6.548;2022-09-27T15:30:41;9.90;99.90
51902;DHT22;37929;53.218;6.548;2022-09-27T15:33:26;9.90;99.90
51902;DHT22;37929;53.218;6.548;2022-09-27T15:35:55;9.90;99.90
51902;DHT22;37929;53.218;6.548;2022-09-27T15:38:33;9.80;99.90
51902;DHT22;37929;53.218;6.548;2022-09-27T15:41:19;9.80;99.90
51902;DHT22;37929;53.218;6.548;2022-09-27T15:43:47;9.80;99.90
51902;DHT22;37929;53.218;6.548;2022-09-27T15:46:37;9.80;99.90
51902;DHT22;37929;53.218;6.548;2022-09-27T15:49:25;9.80;99.90
51902;DHT22;37929;53.218;6.548;2022-09-27T15:51:53;9.80;99.90
51902;DHT22;37929;53.218;6.548;2022-09-27T15:54:20;9.90;99.90
51902;DHT22;37929;53.218;6.548;2022-09-27T15:56:47;9.90;99.90
51902;DHT22;37929;53.218;6.548;2022-09-27T15:59:21;9.90;99.90
51902;DHT22;37929;53.218;6.548;2022-09-27T16:01:48;9.90;99.90
51902;DHT22;37929;53.218;6.548;2022-09-27T16:04:13;9.90;99.90
51902;DHT22;37929;53.218;6.548;2022-09-27T16:06:39;9.90;99.90
51902;DHT22;37929;53.218;6.548;2022-09-27T16:09:13;9.90;99.90
51902;DHT22;37929;53.218;6.548;2022-09-27T16:11:40;9.90;99.90
51902;DHT22;37929;53.218;6.548;2022-09-27T16:14:06;9.90;99.90
51902;DHT22;37929;53.218;6.548;2022-09-27T16:16:32;9.90;99.90
51902;DHT22;37929;53.218;6.548;2022-09-27T16:18:58;9.90;99.90
51902;DHT22;37929;53.218;6.548;2022-09-27T16:21:24;9.90;99.90
51902;DHT22;37929;53.218;6.548;2022-09-27T16:23:49;9.90;99.90
51902;DHT22;37929;53.218;6.548;2022-09-27T16:26:15;9.90;99.90
51902;DHT22;37929;53.218;6.548;2022-09-27T16:28:41;9.90;99.90
51902;DHT22;37929;53.218;6.548;2022-09-27T16:31:07;9.90;99.90
51902;DHT22;37929;53.218;6.548;2022-09-27T16:33:35;9.90;99.90
51902;DHT22;37929;53.218;6.548;2022-09-27T16:36:06;9.90;99.90
51902;DHT22;37929;53.218;6.548;2022-09-27T16:38:40;9.90;99.90
51902;DHT22;37929;53.218;6.548;2022-09-27T16:41:05;9.90;99.90
51902;DHT22;37929;53.218;6.548;2022-09-27T16:43:31;9.80;99.90
51902;DHT22;37929;53.218;6.548;2022-09-27T16:46:07;9.80;99.90
51902;DHT22;37929;53.218;6.548;2022-09-27T16:48:34;9.90;99.90
51902;DHT22;37929;53.218;6.548;2022-09-27T16:51:10;9.80;99.90
51902;DHT22;37929;53.218;6.548;2022-09-27T16:53:56;9.80;99.90
51902;DHT22;37929;53.218;6.548;2022-09-27T16:56:22;9.80;99.90
51902;DHT22;37929;53.218;6.548;2022-09-27T16:58:48;9.80;99.90
51902;DHT22;37929;53.218;6.548;2022-09-27T17:01:14;9.80;99.90
51902;DHT22;37929;53.218;6.548;2022-09-27T17:03:42;9.70;99.90
51902;DHT22;37929;53.218;6.548;2022-09-27T17:06:09;9.60;99.90
51902;DHT22;37929;53.218;6.548;2022-09-27T17:08:35;9.60;99.90
51902;DHT22;37929;53.218;6.548;2022-09-27T17:11:01;9.50;99.90
51902;DHT22;37929;53.218;6.548;2022-09-27T17:13:26;9.40;99.90
51902;DHT22;37929;53.218;6.548;2022-09-27T17:15:52;9.40;99.90
51902;DHT22;37929;53.218;6.548;2022-09-27T17:18:18;9.30;99.90
51902;DHT22;37929;53.218;6.548;2022-09-27T17:20:44;9.20;99.90
51902;DHT22;37929;53.218;6.548;2022-09-27T17:23:10;9.20;99.90
51902;DHT22;37929;53.218;6.548;2022-09-27T17:25:36;9.20;99.90
51902;DHT22;37929;53.218;6.548;2022-09-27T17:28:03;9.10;99.90
51902;DHT22;37929;53.218;6.548;2022-09-27T17:30:29;9.10;99.90
51902;DHT22;37929;53.218;6.548;2022-09-27T17:32:55;9.00;99.90
51902;DHT22;37929;53.218;6.548;2022-09-27T17:35:22;9.00;99.90
51902;DHT22;37929;53.218;6.548;2022-09-27T17:37:48;8.90;99.90
51902;DHT22;37929;53.218;6.548;2022-09-27T17:40:15;8.90;99.90
51902;DHT22;37929;53.218;6.548;2022-09-27T17:42:42;8.90;99.90
51902;DHT22;37929;53.218;6.548;2022-09-27T17:45:08;8.90;99.90
51902;DHT22;37929;53.218;6.548;2022-09-27T17:47:34;8.80;99.90
51902;DHT22;37929;53.218;6.548;2022-09-27T17:50:18;8.80;99.90
51902;DHT22;37929;53.218;6.548;2022-09-27T17:52:52;8.80;99.90
51902;DHT22;37929;53.218;6.548;2022-09-27T17:55:18;8.80;99.90
51902;DHT22;37929;53.218;6.548;2022-09-27T17:57:47;8.80;99.90
51902;DHT22;37929;53.218;6.548;2022-09-27T18:00:14;8.80;99.90
51902;DHT22;37929;53.218;6.548;2022-09-27T18:02:40;8.70;99.90
51902;DHT22;37929;53.218;6.548;2022-09-27T18:05:06;8.80;99.90
51902;DHT22;37929;53.218;6.548;2022-09-27T18:07:32;8.70;99.90
51902;DHT22;37929;53.218;6.548;2022-09-27T18:09:58;8.70;99.90
51902;DHT22;37929;53.218;6.548;2022-09-27T18:12:26;8.70;99.90
51902;DHT22;37929;53.218;6.548;2022-09-27T18:15:00;8.70;99.90
51902;DHT22;37929;53.218;6.548;2022-09-27T18:17:26;8.70;99.90
51902;DHT22;37929;53.218;6.548;2022-09-27T18:19:53;8.70;99.90
51902;DHT22;37929;53.218;6.548;2022-09-27T18:22:24;8.60;99.90
51902;DHT22;37929;53.218;6.548;2022-09-27T18:24:51;8.60;99.90
51902;DHT22;37929;53.218;6.548;2022-09-27T18:27:16;8.60;99.90
51902;DHT22;37929;53.218;6.548;2022-09-27T18:29:44;8.60;99.90
51902;DHT22;37929;53.218;6.548;2022-09-27T18:32:10;8.60;99.90
51902;DHT22;37929;53.218;6.548;2022-09-27T18:34:36;8.50;99.90
51902;DHT22;37929;53.218;6.548;2022-09-27T18:37:01;8.50;99.90
51902;DHT22;37929;53.218;6.548;2022-09-27T18:39:27;8.40;99.90